Time;durP1;ratioP1;P1;durP2;ratioP2;P2;SDS_P1;SDS_P2;PMS_P1;PMS_P2;Temp;Humidity;BMP_temperature;BMP_pressure;BME280_temperature;BME280_humidity;BME280_pressure;Samples;Min_cycle;Max_cycle;Signal;HPM_P1;HPM_P2
2021/01/26 00:01:49;;;;;;;3.20;2.47;;;;;;;2.40;88.25;99855.41;1833069;78;21030;-53
2021/01/26 00:04:17;;;;;;;4.30;2.62;;;;;;;2.32;88.79;99851.98;1769717;81;22371;-52
2021/01/26 00:06:45;;;;;;;5.03;3.22;;;;;;;2.25;89.26;99848.12;1816997;79;21066;-52
2021/01/26 00:09:13;;;;;;;4.42;3.02;;;;;;;2.17;89.83;99837.22;1816960;79;21059;-52
2021/01/26 00:11:40;;;;;;;7.10;3.55;;;;;;;2.08;90.22;99840.45;1817049;79;21720;-52
2021/01/26 00:14:08;;;;;;;4.42;2.90;;;;;;;2.06;90.52;99839.59;1817086;79;21193;-52
2021/01/26 00:16:35;;;;;;;4.62;3.45;;;;;;;2.07;90.74;99827.23;1817055;79;21698;-52
2021/01/26 00:19:04;;;;;;;6.60;3.60;;;;;;;2.05;90.91;99840.49;1817016;79;21157;-52
2021/01/26 00:21:32;;;;;;;6.80;3.65;;;;;;;2.03;90.90;99846.69;1816929;79;21137;-52
2021/01/26 00:24:00;;;;;;;5.80;3.25;;;;;;;2.03;90.89;99849.33;1816908;79;21142;-52
2021/01/26 00:26:27;;;;;;;6.20;3.33;;;;;;;2.00;90.96;99843.20;1816957;79;21098;-52
2021/01/26 00:28:54;;;;;;;6.70;3.77;;;;;;;1.97;91.04;99835.31;1816992;79;21380;-52
2021/01/26 00:31:22;;;;;;;4.80;3.27;;;;;;;1.96;91.09;99828.70;1816858;79;21122;-52
2021/01/26 00:33:50;;;;;;;5.10;3.33;;;;;;;1.93;91.09;99822.15;1817008;79;21130;-53
2021/01/26 00:36:17;;;;;;;6.33;3.37;;;;;;;1.90;91.14;99827.05;1816878;79;21023;-53
2021/01/26 00:38:46;;;;;;;5.17;3.45;;;;;;;1.85;91.24;99846.93;1794549;79;21064;-53
2021/01/26 00:41:14;;;;;;;5.30;3.20;;;;;;;1.79;91.29;99855.39;1790033;80;21205;-53
2021/01/26 00:43:42;;;;;;;4.25;3.22;;;;;;;1.75;91.13;99872.19;1790043;80;21122;-52
2021/01/26 00:46:09;;;;;;;4.72;3.10;;;;;;;1.75;91.23;99881.44;1790005;80;21135;-52
2021/01/26 00:48:37;;;;;;;5.78;3.40;;;;;;;1.73;91.21;99890.69;1790103;80;21040;-52
2021/01/26 00:51:05;;;;;;;6.92;3.70;;;;;;;1.71;91.17;99881.48;1790260;80;21039;-52
2021/01/26 00:53:32;;;;;;;6.60;3.75;;;;;;;1.69;91.19;99881.05;1790185;80;21287;-51
2021/01/26 00:56:03;;;;;;;6.85;3.80;;;;;;;1.67;91.23;99886.37;1789573;80;21154;-52
2021/01/26 00:58:31;;;;;;;6.10;3.40;;;;;;;1.67;91.33;99906.20;1790225;80;21547;-51
2021/01/26 01:00:59;;;;;;;4.40;3.10;;;;;;;1.67;91.52;99902.66;1790240;80;21140;-52
2021/01/26 01:03:28;;;;;;;5.85;3.50;;;;;;;1.65;91.61;99902.67;1775461;80;21188;-51
2021/01/26 01:05:56;;;;;;;5.25;3.30;;;;;;;1.65;91.66;99892.09;1764002;81;21732;-52
2021/01/26 01:08:24;;;;;;;6.40;3.62;;;;;;;1.64;91.74;99879.78;1763788;81;21147;-52
2021/01/26 01:10:52;;;;;;;6.58;4.00;;;;;;;1.63;91.82;99882.00;1763949;81;21556;-52
2021/01/26 01:13:19;;;;;;;5.53;3.33;;;;;;;1.61;91.77;99900.10;1763781;81;21136;-52
2021/01/26 01:15:47;;;;;;;5.15;3.60;;;;;;;1.58;91.65;99897.04;1763846;81;21525;-52
2021/01/26 01:18:16;;;;;;;6.37;3.58;;;;;;;1.56;91.63;99893.55;1763868;81;21448;-51
2021/01/26 01:20:46;;;;;;;5.60;3.45;;;;;;;1.53;91.55;99892.27;1763695;81;20964;-51
2021/01/26 01:23:14;;;;;;;4.90;3.25;;;;;;;1.53;91.36;99888.30;1763786;81;21518;-52
2021/01/26 01:25:42;;;;;;;6.87;3.50;;;;;;;1.54;91.08;99879.48;1763791;81;21053;-51
2021/01/26 01:28:09;;;;;;;7.78;4.05;;;;;;;1.54;90.88;99874.20;1763892;81;21101;-52
2021/01/26 01:30:37;;;;;;;6.10;3.75;;;;;;;1.55;90.53;99883.87;1763755;81;21346;-51
2021/01/26 01:33:05;;;;;;;6.45;3.47;;;;;;;1.55;90.15;99887.83;1763756;81;21073;-53
2021/01/26 01:35:34;;;;;;;6.58;3.85;;;;;;;1.56;89.90;99889.58;1763874;81;21496;-52
2021/01/26 01:38:01;;;;;;;7.37;3.42;;;;;;;1.56;89.73;99888.26;1751497;81;21133;-52
2021/01/26 01:40:33;;;;;;;5.22;3.45;;;;;;;1.58;89.29;99898.36;1795447;80;21097;-52
2021/01/26 01:43:01;;;;;;;6.37;3.90;;;;;;;1.59;89.22;99904.07;1795533;80;21458;-52
2021/01/26 01:45:28;;;;;;;9.08;4.05;;;;;;;1.60;88.60;99893.07;1795521;80;21163;-52
2021/01/26 01:48:10;;;;;;;5.50;3.65;;;;;;;1.60;88.39;99890.43;1795652;80;21553;-52
2021/01/26 01:50:44;;;;;;;5.30;3.65;;;;;;;1.60;88.30;99891.28;1795531;80;21030;-52
2021/01/26 01:53:26;;;;;;;5.58;3.47;;;;;;;1.61;88.08;99890.86;1795677;80;21176;-52
2021/01/26 01:56:00;;;;;;;6.67;3.67;;;;;;;1.62;87.74;99894.78;1795520;80;21384;-52
2021/01/26 01:58:30;;;;;;;5.87;3.62;;;;;;;1.63;87.46;99893.03;1795689;79;21189;-53
2021/01/26 02:01:05;;;;;;;10.80;4.35;;;;;;;1.64;87.39;99902.70;1795485;80;21157;-53
2021/01/26 02:03:37;;;;;;;8.13;3.60;;;;;;;1.66;87.07;99908.84;1796398;79;21086;-53
2021/01/26 02:06:05;;;;;;;4.62;3.27;;;;;;;1.65;86.86;99914.56;1797757;79;21155;-53
2021/01/26 02:08:56;;;;;;;5.80;3.52;;;;;;;1.65;86.55;99907.95;1797724;79;21364;-53
2021/01/26 02:11:26;;;;;;;5.55;3.87;;;;;;;1.67;86.40;99919.41;1797732;79;21450;-52
2021/01/26 02:13:53;;;;;;;4.53;3.33;;;;;;;1.67;86.09;99912.80;1797867;79;21556;-52
2021/01/26 02:16:39;;;;;;;7.30;3.80;;;;;;;1.66;86.02;99912.38;1797682;79;21144;-52
2021/01/26 02:19:22;;;;;;;6.17;3.35;;;;;;;1.66;85.96;99917.66;1796925;79;21121;-52
2021/01/26 02:22:30;;;;;;;6.42;3.85;;;;;;;1.69;85.91;99916.73;1720703;79;21918;-52
2021/01/26 02:25:32;;;;;;;5.87;3.67;;;;;;;1.69;85.81;99911.45;1797651;79;21184;-52
2021/01/26 02:28:48;;;;;;;6.67;4.12;;;;;;;1.70;85.44;99923.77;1797791;79;21149;-53
2021/01/26 02:31:29;;;;;;;;;;;;;;;1.67;85.29;99927.34;1799895;79;21073;-51
2021/01/26 02:34:05;;;;;;;5.10;3.30;;;;;;;1.64;85.36;99939.23;1797335;79;20238;-52
2021/01/26 02:36:56;;;;;;;6.40;3.37;;;;;;;1.63;85.48;99942.77;1797891;79;22130;-51
2021/01/26 02:39:39;;;;;;;4.62;3.40;;;;;;;1.61;85.48;99954.27;1797223;79;21212;-51
2021/01/26 02:42:33;;;;;;;6.90;3.90;;;;;;;1.59;85.28;99954.73;1797713;79;21077;-52
2021/01/26 02:45:31;;;;;;;5.77;3.53;;;;;;;1.60;85.05;99950.73;1762985;81;21153;-52
2021/01/26 02:48:20;;;;;;;5.87;4.05;;;;;;;1.64;85.12;99959.05;1730829;82;21349;-52
2021/01/26 02:51:05;;;;;;;5.20;3.67;;;;;;;1.64;85.51;99984.16;1730859;82;21345;-52
2021/01/26 02:53:54;;;;;;;;;;;;;;;1.61;86.06;99993.44;1734907;82;21092;-52
2021/01/26 02:57:03;;;;;;;9.43;4.10;;;;;;;1.57;86.68;100003.62;1760502;81;20237;-52
2021/01/26 02:59:48;;;;;;;6.20;4.22;;;;;;;1.53;87.31;100016.44;1760540;81;21158;-52
2021/01/26 03:02:19;;;;;;;;;;;;;;;1.52;87.86;100031.86;1762948;81;21122;-52
2021/01/26 03:05:01;;;;;;;7.22;4.20;;;;;;;1.47;88.49;100031.89;1746097;81;21389;-52
2021/01/26 03:07:31;;;;;;;8.93;4.37;;;;;;;1.42;88.95;100041.63;1766544;81;21188;-52
2021/01/26 03:10:03;;;;;;;6.85;4.22;;;;;;;1.40;89.41;100040.31;1766367;81;21170;-52
2021/01/26 03:12:34;;;;;;;9.28;4.55;;;;;;;1.40;89.75;100036.81;1766471;81;21149;-52
2021/01/26 03:15:10;;;;;;;6.50;4.30;;;;;;;1.40;90.07;100027.10;1766327;81;21612;-52
2021/01/26 03:17:44;;;;;;;8.20;5.08;;;;;;;1.42;90.16;100030.61;1766463;81;21454;-52
2021/01/26 03:20:35;;;;;;;6.70;4.10;;;;;;;1.46;90.21;100039.84;1731197;81;21153;-52
2021/01/26 03:23:19;;;;;;;6.60;4.25;;;;;;;1.49;90.38;100030.57;1766445;81;21065;-52
2021/01/26 03:25:49;;;;;;;7.73;4.90;;;;;;;1.53;90.56;100035.79;1761388;81;21090;-52
2021/01/26 03:28:16;;;;;;;6.87;4.70;;;;;;;1.59;90.58;100030.90;1742713;82;21444;-52
2021/01/26 03:30:48;;;;;;;9.35;4.97;;;;;;;1.63;90.54;100026.01;1765834;81;22277;-52
2021/01/26 03:33:20;;;;;;;8.08;4.50;;;;;;;1.66;90.48;100022.47;1766079;81;21065;-51
2021/01/26 03:35:49;;;;;;;10.23;5.00;;;;;;;1.70;90.35;100019.80;1766285;81;21554;-52
2021/01/26 03:38:23;;;;;;;10.78;5.53;;;;;;;1.74;90.21;100018.44;1766125;81;21075;-51
2021/01/26 03:40:52;;;;;;;7.62;4.83;;;;;;;1.79;90.08;100020.58;1795278;79;21137;-52
2021/01/26 03:43:20;;;;;;;8.38;5.05;;;;;;;1.81;89.83;100020.11;1741216;82;21357;-51
2021/01/26 03:46:25;;;;;;;6.75;4.28;;;;;;;1.84;89.76;100017.43;1795434;80;21636;-52
2021/01/26 03:49:11;;;;;;;5.80;4.15;;;;;;;1.87;89.48;100013.42;1740669;82;21105;-51
2021/01/26 03:52:07;;;;;;;8.55;4.85;;;;;;;1.91;89.24;100012.53;1795476;80;21184;-52
2021/01/26 03:54:37;;;;;;;7.62;5.10;;;;;;;1.94;89.21;100010.28;1741340;82;21050;-51
2021/01/26 03:57:44;;;;;;;7.37;5.17;;;;;;;1.97;89.18;100000.55;1773895;80;21375;-52
2021/01/26 04:00:45;;;;;;;8.35;4.90;;;;;;;1.98;89.15;100003.63;1792476;80;21054;-51
2021/01/26 04:03:27;;;;;;;8.38;5.30;;;;;;;1.99;89.06;100013.30;1793636;78;21065;-52
2021/01/26 04:06:33;;;;;;;6.10;4.30;;;;;;;2.00;88.93;100011.09;1827356;78;21169;-52
2021/01/26 04:09:10;;;;;;;6.95;4.55;;;;;;;2.04;88.74;100012.38;1827688;78;21126;-53
2021/01/26 04:11:49;;;;;;;9.03;4.80;;;;;;;2.06;88.59;100010.15;1827837;78;21247;-52
2021/01/26 04:14:36;;;;;;;7.28;4.25;;;;;;;2.09;88.55;99999.96;1824842;78;21122;-52
2021/01/26 04:17:17;;;;;;;8.08;4.85;;;;;;;2.13;88.36;100002.56;1800401;78;21149;-53
2021/01/26 04:20:02;;;;;;;7.33;4.50;;;;;;;2.17;88.19;100003.41;1827713;78;21070;-52
2021/01/26 04:22:29;;;;;;;6.90;4.65;;;;;;;2.20;87.99;100006.01;1827688;78;21133;-52
2021/01/26 04:24:57;;;;;;;9.78;4.53;;;;;;;2.21;87.56;100001.14;1827909;78;21574;-52
2021/01/26 04:27:25;;;;;;;7.15;4.62;;;;;;;2.23;87.42;100002.00;1827689;78;21082;-53
2021/01/26 04:29:53;;;;;;;6.42;4.15;;;;;;;2.24;87.41;100006.39;1827878;78;21054;-52
2021/01/26 04:32:22;;;;;;;8.78;5.15;;;;;;;2.24;87.38;100005.07;1827806;78;21109;-52
2021/01/26 04:34:50;;;;;;;6.72;4.67;;;;;;;2.26;87.35;100016.50;1827899;78;21109;-52
2021/01/26 04:37:17;;;;;;;6.92;4.40;;;;;;;2.28;87.20;100030.58;1820455;78;21954;-52
2021/01/26 04:39:46;;;;;;;9.85;4.40;;;;;;;2.32;87.21;100043.77;1795284;80;21046;-52
2021/01/26 04:42:20;;;;;;;6.87;4.70;;;;;;;2.33;87.10;100054.34;1795292;80;21042;-53
2021/01/26 04:44:58;;;;;;;7.37;4.75;;;;;;;2.38;87.03;100070.17;1780043;80;21055;-52
2021/01/26 04:47:46;;;;;;;6.45;4.45;;;;;;;2.41;87.27;100070.13;1795375;79;21054;-53
2021/01/26 04:50:42;;;;;;;8.98;4.72;;;;;;;2.43;87.62;100066.58;1795228;79;21177;-52
2021/01/26 04:53:27;;;;;;;8.75;4.85;;;;;;;2.41;87.91;100068.80;1794149;79;21177;-52
2021/01/26 04:56:12;;;;;;;6.60;4.58;;;;;;;2.38;88.21;100067.52;1795454;80;21110;-51
2021/01/26 04:59:01;;;;;;;8.25;4.90;;;;;;;2.34;88.66;100073.75;1795275;79;21185;-52
2021/01/26 05:01:50;;;;;;;8.85;5.28;;;;;;;2.33;89.03;100072.86;1795420;79;21209;-51
2021/01/26 05:04:28;;;;;;;9.08;4.60;;;;;;;2.31;89.25;100073.77;1792564;79;21217;-53
2021/01/26 05:07:10;;;;;;;9.25;4.83;;;;;;;2.30;89.41;100072.91;1787702;80;21039;-52
2021/01/26 05:09:46;;;;;;;9.60;4.90;;;;;;;2.29;89.49;100078.63;1787777;80;21146;-52
2021/01/26 05:12:18;;;;;;;11.08;4.42;;;;;;;2.36;89.34;100082.55;1787697;80;21482;-52
2021/01/26 05:14:48;;;;;;;13.38;4.37;;;;;;;2.45;89.00;100075.80;1787778;80;21055;-52
2021/01/26 05:17:41;;;;;;;7.35;4.65;;;;;;;2.52;88.80;100072.17;1787772;80;21582;-52
2021/01/26 05:20:18;;;;;;;7.12;4.75;;;;;;;2.58;88.42;100071.23;1787784;79;21113;-53
2021/01/26 05:23:05;;;;;;;8.28;4.03;;;;;;;2.62;88.31;100076.91;1787598;80;21107;-52
2021/01/26 05:25:33;;;;;;;9.88;5.00;;;;;;;2.66;88.35;100085.69;1787686;80;21075;-53
2021/01/26 05:28:00;;;;;;;11.88;4.80;;;;;;;2.70;88.44;100094.02;1787699;79;21094;-53
2021/01/26 05:30:33;;;;;;;8.05;4.60;;;;;;;2.74;88.63;100089.56;1787684;80;21442;-53
2021/01/26 05:33:09;;;;;;;11.48;5.10;;;;;;;2.77;88.78;100087.77;1787708;80;21577;-52
2021/01/26 05:35:38;;;;;;;;;;;;;;;2.82;88.85;100087.25;1790298;79;21070;-52
2021/01/26 05:38:05;;;;;;;9.80;4.87;;;;;;;2.85;88.88;100091.17;1780536;79;20622;-52
2021/01/26 05:40:40;;;;;;;11.97;4.85;;;;;;;2.90;88.92;100086.25;1774760;80;21040;-53
2021/01/26 05:43:10;;;;;;;10.75;4.58;;;;;;;2.93;88.91;100088.42;1774786;80;21070;-52
2021/01/26 05:45:45;;;;;;;8.53;4.62;;;;;;;2.98;88.74;100079.95;1753446;80;21402;-52
2021/01/26 05:48:16;;;;;;;10.08;4.67;;;;;;;3.01;88.45;100081.70;1774803;80;21105;-51
2021/01/26 05:50:44;;;;;;;9.50;4.45;;;;;;;3.03;88.10;100079.00;1774457;80;21077;-52
2021/01/26 05:53:31;;;;;;;10.40;4.35;;;;;;;3.06;87.77;100089.12;1774652;80;21132;-52
2021/01/26 05:56:13;;;;;;;10.58;5.03;;;;;;;3.09;87.34;100093.04;1774697;80;21469;-52
2021/01/26 05:58:43;;;;;;;9.00;4.42;;;;;;;3.14;87.11;100092.52;1774680;80;21005;-52
2021/01/26 06:01:13;;;;;;;12.25;4.97;;;;;;;3.21;86.85;100096.42;1774688;80;21128;-52
2021/01/26 06:03:41;;;;;;;13.28;5.03;;;;;;;3.29;86.60;100095.84;1774704;80;21544;-53
2021/01/26 06:06:17;;;;;;;11.83;6.12;;;;;;;3.35;86.01;100086.47;1792033;79;21103;-52
2021/01/26 06:08:54;;;;;;;21.97;5.92;;;;;;;3.41;85.84;100078.41;1792785;80;22339;-53
2021/01/26 06:11:29;;;;;;;18.60;6.58;;;;;;;3.51;85.34;100079.59;1792579;80;21575;-52
2021/01/26 06:14:11;;;;;;;12.88;5.83;;;;;;;3.55;85.43;100079.53;1792933;80;21163;-52
2021/01/26 06:16:39;;;;;;;22.00;6.95;;;;;;;3.60;84.90;100087.38;1792547;80;21127;-52
2021/01/26 06:19:07;;;;;;;16.87;7.50;;;;;;;3.62;84.81;100094.86;1792720;80;21055;-53
2021/01/26 06:21:50;;;;;;;17.87;6.83;;;;;;;3.67;84.69;100093.46;1792640;80;21373;-52
2021/01/26 06:24:25;;;;;;;15.00;6.72;;;;;;;3.71;84.24;100102.67;1792588;80;21150;-52
2021/01/26 06:27:30;;;;;;;20.23;6.58;;;;;;;3.73;84.12;100104.84;1792769;80;21438;-52
2021/01/26 06:30:34;;;;;;;20.52;6.62;;;;;;;3.77;84.21;100111.41;1792709;80;21183;-54
2021/01/26 06:33:33;;;;;;;23.73;8.40;;;;;;;3.84;83.77;100123.66;1792122;80;21134;-52
2021/01/26 06:36:37;;;;;;;21.27;7.87;;;;;;;3.90;83.54;100128.87;1792622;80;21376;-53
2021/01/26 06:39:28;;;;;;;16.30;6.95;;;;;;;3.96;83.59;100133.17;1824573;78;21051;-53
2021/01/26 06:42:16;;;;;;;12.80;5.33;;;;;;;3.98;83.41;100129.61;1825247;78;21516;-53
2021/01/26 06:45:01;;;;;;;12.23;5.15;;;;;;;3.98;82.82;100124.30;1825102;78;21460;-52
2021/01/26 06:48:08;;;;;;;8.73;4.62;;;;;;;3.98;82.13;100128.28;1787256;78;21137;-53
2021/01/26 06:51:00;;;;;;;10.58;4.95;;;;;;;4.00;81.62;100129.13;1794696;80;21136;-52
2021/01/26 06:53:56;;;;;;;11.75;5.00;;;;;;;4.06;81.46;100133.89;1794582;80;21093;-53
2021/01/26 06:57:02;;;;;;;12.37;5.72;;;;;;;4.11;81.69;100131.58;1820246;78;20931;-53
2021/01/26 07:00:12;;;;;;;14.55;5.08;;;;;;;4.17;82.03;100138.56;1825118;78;21126;-53
2021/01/26 07:03:21;;;;;;;11.28;5.00;;;;;;;4.20;82.85;100145.14;1747854;82;21176;-53
2021/01/26 07:06:30;;;;;;;11.60;4.50;;;;;;;4.23;83.56;100139.77;1744600;81;21368;-53
2021/01/26 07:09:29;;;;;;;14.43;4.23;;;;;;;4.37;84.34;100138.65;1873040;76;21757;-53
2021/01/26 07:12:15;;;;;;;12.75;4.25;;;;;;;4.37;84.78;100132.02;1811794;78;20879;-53
2021/01/26 07:15:20;;;;;;;9.20;4.15;;;;;;;4.44;85.01;100134.95;1807760;79;21361;-53
2021/01/26 07:18:08;;;;;;;13.98;6.33;;;;;;;4.51;85.21;100128.61;1807967;79;21037;-53
2021/01/26 07:21:16;;;;;;;11.15;4.85;;;;;;;4.57;85.37;100125.86;1808139;78;20957;-53
2021/01/26 07:24:10;;;;;;;16.57;4.33;;;;;;;4.63;85.46;100121.32;1807926;79;21540;-52
2021/01/26 07:27:11;;;;;;;11.38;4.03;;;;;;;4.73;85.49;100121.53;1807947;79;20989;-52
2021/01/26 07:30:19;;;;;;;21.17;4.92;;;;;;;4.81;85.57;100123.59;1807582;79;21205;-54
2021/01/26 07:33:05;;;;;;;17.42;4.55;;;;;;;4.83;85.74;100130.19;1807988;79;21037;-53
2021/01/26 07:36:00;;;;;;;13.20;4.57;;;;;;;4.84;85.90;100130.61;1909205;74;22626;-53
2021/01/26 07:38:39;;;;;;;25.68;5.37;;;;;;;4.80;86.07;100133.80;1828329;77;20998;-53
2021/01/26 07:41:39;;;;;;;20.23;5.53;;;;;;;4.81;86.16;100134.22;1819885;78;21195;-52
2021/01/26 07:44:17;;;;;;;17.02;5.67;;;;;;;4.77;86.36;100137.85;1819756;78;20921;-53
2021/01/26 07:47:07;;;;;;;14.00;4.72;;;;;;;4.69;86.97;100134.46;1797179;78;21107;-53
2021/01/26 07:50:01;;;;;;;26.27;6.45;;;;;;;4.67;87.50;100128.31;1819809;78;20968;-53
2021/01/26 07:52:30;;;;;;;21.35;5.92;;;;;;;4.65;88.06;100131.02;1800428;78;21055;-53
2021/01/26 07:55:33;;;;;;;14.28;4.95;;;;;;;4.65;88.48;100131.45;1819781;78;21344;-53
2021/01/26 07:58:11;;;;;;;9.40;3.85;;;;;;;4.65;89.29;100127.47;1819446;78;20944;-53
2021/01/26 08:00:42;;;;;;;14.55;5.33;;;;;;;4.67;89.54;100133.62;1801661;78;21074;-52
2021/01/26 08:03:09;;;;;;;12.68;4.37;;;;;;;4.72;89.51;100145.02;1819811;78;21178;-53
2021/01/26 08:05:48;;;;;;;16.50;4.22;;;;;;;4.76;89.64;100136.11;1818790;78;21150;-53
2021/01/26 08:08:32;;;;;;;14.28;4.12;;;;;;;4.76;89.51;100134.78;1819314;78;21369;-54
2021/01/26 08:11:20;;;;;;;19.50;4.75;;;;;;;4.75;89.33;100126.36;1818998;78;21161;-53
2021/01/26 08:14:01;;;;;;;9.78;4.10;;;;;;;4.78;89.31;100122.34;1819694;78;21046;-54
2021/01/26 08:16:47;;;;;;;11.90;3.67;;;;;;;4.84;89.20;100116.89;1783320;78;21106;-53
2021/01/26 08:19:22;;;;;;;9.30;3.98;;;;;;;4.91;89.11;100125.61;1819513;78;21170;-52
2021/01/26 08:21:53;;;;;;;8.55;3.70;;;;;;;4.97;88.96;100120.15;1819845;77;21180;-53
2021/01/26 08:24:33;;;;;;;5.87;3.75;;;;;;;4.99;88.56;100110.83;1819565;78;21915;-53
2021/01/26 08:27:32;;;;;;;11.43;3.80;;;;;;;5.01;88.49;100105.88;1819724;78;20988;-52
2021/01/26 08:30:11;;;;;;;11.20;4.30;;;;;;;5.06;88.45;100104.90;1819856;78;21039;-53
2021/01/26 08:32:42;;;;;;;9.43;4.40;;;;;;;5.16;88.10;100102.47;1819703;77;21070;-53
2021/01/26 08:35:24;;;;;;;14.40;4.58;;;;;;;5.22;87.70;100109.44;1818231;78;21227;-54
2021/01/26 08:37:54;;;;;;;12.03;4.55;;;;;;;5.25;87.49;100106.70;1833977;77;21020;-53
2021/01/26 08:40:34;;;;;;;11.53;4.65;;;;;;;5.31;87.21;100103.89;1852881;77;21052;-53
2021/01/26 08:43:04;;;;;;;9.95;4.60;;;;;;;5.37;86.71;100105.06;1852909;77;21033;-54
2021/01/26 08:45:38;;;;;;;13.90;5.25;;;;;;;5.42;86.50;100103.63;1852637;77;21119;-52
2021/01/26 08:48:13;;;;;;;8.18;3.67;;;;;;;5.47;86.29;100108.85;1852273;77;21222;-53
2021/01/26 08:50:54;;;;;;;13.22;3.72;;;;;;;5.52;86.14;100097.64;1820840;77;21079;-53
2021/01/26 08:53:32;;;;;;;9.00;3.77;;;;;;;5.56;85.38;100095.31;1851133;77;21052;-53
2021/01/26 08:56:24;;;;;;;8.15;3.15;;;;;;;5.58;84.77;100088.17;1852308;77;21230;-52
2021/01/26 08:58:55;;;;;;;13.60;4.05;;;;;;;5.57;84.26;100076.67;1852275;77;21120;-53
2021/01/26 09:01:40;;;;;;;10.05;3.33;;;;;;;5.55;83.32;100079.84;1852288;77;21407;-52
2021/01/26 09:04:20;;;;;;;8.53;3.62;;;;;;;5.52;82.49;100075.04;1852267;77;21060;-53
2021/01/26 09:06:48;;;;;;;14.78;4.70;;;;;;;5.49;81.70;100067.14;1852326;77;21048;-52
2021/01/26 09:09:33;;;;;;;37.20;16.65;;;;;;;5.47;82.11;100059.66;1852249;77;21000;-52
2021/01/26 09:12:05;;;;;;;44.45;12.70;;;;;;;5.42;81.72;100060.66;1852435;77;20929;-52
2021/01/26 09:14:44;;;;;;;19.82;6.70;;;;;;;5.40;81.95;100063.78;1800449;77;21377;-52
2021/01/26 09:17:28;;;;;;;19.50;6.40;;;;;;;5.39;82.08;100054.06;1852153;77;20903;-53
2021/01/26 09:20:06;;;;;;;40.98;16.23;;;;;;;5.35;82.08;100056.38;1841504;77;21102;-52
2021/01/26 09:22:34;;;;;;;17.75;7.55;;;;;;;5.36;81.96;100055.47;1755004;80;21533;-53
2021/01/26 09:25:16;;;;;;;21.77;9.95;;;;;;;5.35;81.82;100048.41;1777480;80;21172;-54
2021/01/26 09:27:43;;;;;;;21.48;10.50;;;;;;;5.33;81.82;100045.39;1754870;81;21517;-52
2021/01/26 09:30:17;;;;;;;12.68;6.75;;;;;;;5.28;82.00;100050.80;1755620;81;21177;-53
2021/01/26 09:33:01;;;;;;;33.80;15.40;;;;;;;5.26;81.07;100055.29;1757082;80;21184;-53
2021/01/26 09:35:40;;;;;;;17.23;7.30;;;;;;;5.25;81.24;100051.74;1768177;81;21075;-54
2021/01/26 09:38:33;;;;;;;14.65;7.20;;;;;;;5.25;81.02;100041.11;1765303;80;21075;-53
2021/01/26 09:41:14;;;;;;;14.38;7.17;;;;;;;5.27;81.10;100046.41;1775502;80;21337;-54
2021/01/26 09:43:44;;;;;;;12.63;6.60;;;;;;;5.30;80.91;100037.91;1772710;80;21055;-53
2021/01/26 09:46:23;;;;;;;23.55;10.32;;;;;;;5.33;80.95;100040.93;1776662;80;21630;-52
2021/01/26 09:48:53;;;;;;;14.85;7.97;;;;;;;5.33;80.95;100040.93;1761129;80;21168;-54
2021/01/26 09:51:29;;;;;;;19.20;10.23;;;;;;;5.30;81.06;100027.72;1777661;78;21607;-53
2021/01/26 09:54:03;;;;;;;29.42;11.43;;;;;;;5.26;82.04;100029.56;1755327;81;21378;-53
2021/01/26 09:56:32;;;;;;;25.35;11.75;;;;;;;5.22;82.99;100032.36;1746350;82;21082;-53
2021/01/26 09:59:00;;;;;;;23.77;11.33;;;;;;;5.19;83.53;100028.42;1755451;81;21184;-54
2021/01/26 10:01:28;;;;;;;17.57;9.33;;;;;;;5.16;83.81;100027.59;1746431;82;21181;-53
2021/01/26 10:03:58;;;;;;;18.35;9.85;;;;;;;5.13;84.07;100023.69;1755718;81;21010;-53
2021/01/26 10:06:26;;;;;;;25.05;9.13;;;;;;;5.13;84.22;100014.85;1777110;80;21196;-54
2021/01/26 10:08:54;;;;;;;25.77;8.63;;;;;;;5.16;84.64;100020.95;1777058;80;21144;-53
2021/01/26 10:11:29;;;;;;;24.95;11.18;;;;;;;5.20;84.78;100012.92;1751247;80;20969;-54
2021/01/26 10:14:18;;;;;;;16.23;9.05;;;;;;;5.22;84.82;100014.61;1777327;80;21603;-52
2021/01/26 10:16:56;;;;;;;18.98;8.93;;;;;;;5.25;84.55;100013.67;1777093;80;21080;-52
2021/01/26 10:19:33;;;;;;;24.45;11.53;;;;;;;5.25;84.01;100005.70;1777154;80;21323;-53
2021/01/26 10:22:13;;;;;;;20.68;10.15;;;;;;;5.25;84.01;100005.70;1776726;80;21105;-54
2021/01/26 10:24:41;;;;;;;20.35;11.80;;;;;;;5.26;83.99;99991.50;1789176;79;21111;-54
2021/01/26 10:27:16;;;;;;;23.00;12.33;;;;;;;5.26;84.60;99988.84;1768025;81;21079;-53
2021/01/26 10:29:44;;;;;;;35.80;17.85;;;;;;;5.25;84.14;99995.07;1758935;80;21116;-53
2021/01/26 10:32:14;;;;;;;55.25;23.07;;;;;;;5.23;85.67;99998.23;1766463;80;21353;-58
2021/01/26 10:34:45;;;;;;;73.12;32.60;;;;;;;5.20;86.67;99985.02;1763243;80;21221;-59
2021/01/26 10:37:20;;;;;;;53.87;27.58;;;;;;;5.16;87.32;99994.37;1794208;79;21161;-59
2021/01/26 10:40:11;;;;;;;48.20;26.77;;;;;;;5.10;87.81;99996.33;1772974;80;21063;-58
2021/01/26 10:42:58;;;;;;;52.75;23.42;;;;;;;4.99;87.65;99988.63;1769134;80;21004;-58
2021/01/26 10:45:47;;;;;;;56.00;22.22;;;;;;;4.91;88.09;99981.27;1719953;81;21230;-59
2021/01/26 10:48:33;;;;;;;38.80;18.95;;;;;;;4.79;87.83;99994.39;1763907;80;21082;-58
2021/01/26 10:51:30;;;;;;;42.62;18.92;;;;;;;4.79;87.83;99994.39;1770251;80;21471;-58
2021/01/26 10:53:59;;;;;;;31.70;16.55;;;;;;;4.67;86.97;99995.55;1778243;80;21141;-58
2021/01/26 10:56:27;;;;;;;37.58;17.42;;;;;;;4.56;86.95;99999.33;1766773;80;21098;-58
2021/01/26 10:58:55;;;;;;;35.55;17.67;;;;;;;4.49;86.97;99999.02;1769749;80;21385;-59
2021/01/26 11:01:22;;;;;;;25.75;14.33;;;;;;;4.43;85.77;99995.19;1756429;80;21145;-59
2021/01/26 11:03:52;;;;;;;23.47;13.45;;;;;;;4.35;82.98;99999.80;1776705;80;21084;-58
2021/01/26 11:06:22;;;;;;;25.50;12.65;;;;;;;4.28;80.83;99991.08;1769304;80;21078;-58
2021/01/26 11:08:50;;;;;;;20.43;10.95;;;;;;;4.24;79.75;99977.47;1782526;80;21054;-59
2021/01/26 11:11:20;;;;;;;20.32;11.05;;;;;;;4.22;78.91;99982.80;1786497;80;21381;-59
2021/01/26 11:13:50;;;;;;;22.25;12.18;;;;;;;4.21;78.43;99981.52;1759409;80;20936;-59
2021/01/26 11:16:18;;;;;;;21.00;11.00;;;;;;;4.22;79.11;99975.30;1782583;79;21166;-59
2021/01/26 11:18:48;;;;;;;20.80;9.60;;;;;;;4.24;79.74;99986.28;1793491;79;21009;-58
2021/01/26 11:21:20;;;;;;;18.80;9.05;;;;;;;4.25;79.68;100022.52;1807121;79;21035;-59
2021/01/26 11:23:50;;;;;;;22.07;10.50;;;;;;;4.24;79.99;100004.00;1773612;80;21368;-59
2021/01/26 11:26:19;;;;;;;21.55;10.15;;;;;;;4.23;80.52;100020.36;1776519;80;21091;-59
2021/01/26 11:28:47;;;;;;;19.90;10.10;;;;;;;4.21;81.05;100021.31;1777090;80;21106;-59
2021/01/26 11:31:15;;;;;;;15.23;8.68;;;;;;;4.18;82.16;100027.55;1755559;81;21121;-58
2021/01/26 11:33:43;;;;;;;13.80;7.72;;;;;;;4.14;82.72;100006.83;1746303;82;21199;-58
2021/01/26 11:36:13;;;;;;;17.75;7.55;;;;;;;4.09;82.86;100017.98;1759000;81;21215;-58
2021/01/26 11:38:40;;;;;;;20.55;8.88;;;;;;;4.05;82.76;100015.42;1785599;80;21071;-59
2021/01/26 11:41:08;;;;;;;14.18;7.85;;;;;;;4.01;83.26;100018.14;1757793;81;21050;-58
2021/01/26 11:43:35;;;;;;;18.85;8.20;;;;;;;3.98;83.40;100019.53;1828244;77;20944;-59
2021/01/26 11:46:04;;;;;;;23.70;9.05;;;;;;;3.96;83.48;100012.49;1828310;78;21154;-59
2021/01/26 11:48:32;;;;;;;15.60;7.85;;;;;;;3.94;83.96;100016.95;1828432;78;22073;-59
2021/01/26 11:51:01;;;;;;;18.65;9.85;;;;;;;3.93;84.35;100032.45;1828251;78;21181;-60
2021/01/26 11:53:29;;;;;;;23.45;12.45;;;;;;;3.90;84.26;100017.48;1828225;78;20980;-59
2021/01/26 11:55:59;;;;;;;39.15;17.00;;;;;;;3.87;84.78;100029.48;1828252;78;21114;-58
2021/01/26 11:58:29;;;;;;;24.75;11.93;;;;;;;3.87;85.28;100033.46;1828265;78;21019;-58
2021/01/26 12:00:58;;;;;;;20.65;11.65;;;;;;;3.85;85.59;100045.84;1828148;78;21352;-59
2021/01/26 12:03:26;;;;;;;25.57;13.80;;;;;;;3.84;85.82;100028.19;1828261;78;21105;-59
2021/01/26 12:05:56;;;;;;;23.60;12.50;;;;;;;3.79;86.24;100036.69;1828194;78;21126;-59
2021/01/26 12:08:24;;;;;;;31.15;18.12;;;;;;;3.69;86.53;100038.20;1828241;78;21087;-58
2021/01/26 12:10:52;;;;;;;12.13;7.45;;;;;;;3.65;86.84;100035.62;1828224;78;21038;-58
2021/01/26 12:13:21;;;;;;;20.40;10.70;;;;;;;3.57;86.63;100079.05;1829782;77;21472;-59
2021/01/26 12:15:49;;;;;;;24.07;12.10;;;;;;;3.51;87.09;100033.22;1839485;77;21048;-58
2021/01/26 12:18:16;;;;;;;10.80;5.60;;;;;;;3.47;87.69;100034.17;1816805;77;22286;-58
2021/01/26 12:20:44;;;;;;;14.47;8.00;;;;;;;3.41;88.29;100065.16;1832834;77;21165;-58